sensor_id;sensor_type;location;lat;lon;timestamp;pressure;altitude;pressure_sealevel;temperature;humidity
68456;BME280;55437;55.046;38.838;2023-07-20T00:00:32;98641.66;;;13.29;78.17
68456;BME280;55437;55.046;38.838;2023-07-20T00:03:14;98648.69;;;13.27;78.21
68456;BME280;55437;55.046;38.838;2023-07-20T00:05:45;98656.31;;;13.29;78.14
68456;BME280;55437;55.046;38.838;2023-07-20T00:08:11;98651.16;;;13.29;78.30
68456;BME280;55437;55.046;38.838;2023-07-20T00:10:37;98654.69;;;13.28;78.36
68456;BME280;55437;55.046;38.838;2023-07-20T00:13:03;98653.94;;;13.26;78.50
68456;BME280;55437;55.046;38.838;2023-07-20T00:15:28;98659.19;;;13.24;78.67
68456;BME280;55437;55.046;38.838;2023-07-20T00:17:54;98653.38;;;13.21;78.72
68456;BME280;55437;55.046;38.838;2023-07-20T00:20:23;98652.56;;;13.20;78.79
68456;BME280;55437;55.046;38.838;2023-07-20T00:22:49;98652.66;;;13.19;79.17
68456;BME280;55437;55.046;38.838;2023-07-20T00:25:17;98652.66;;;13.19;78.97
68456;BME280;55437;55.046;38.838;2023-07-20T00:27:43;98656.16;;;13.18;79.25
68456;BME280;55437;55.046;38.838;2023-07-20T00:30:09;98660.38;;;13.19;79.16
68456;BME280;55437;55.046;38.838;2023-07-20T00:32:35;98657.06;;;13.17;79.31
68456;BME280;55437;55.046;38.838;2023-07-20T00:35:01;98660.47;;;13.17;79.20
68456;BME280;55437;55.046;38.838;2023-07-20T00:37:29;98660.69;;;13.14;79.47
68456;BME280;55437;55.046;38.838;2023-07-20T00:39:55;98661.56;;;13.13;79.21
68456;BME280;55437;55.046;38.838;2023-07-20T00:42:24;98658.16;;;13.13;79.47
68456;BME280;55437;55.046;38.838;2023-07-20T00:44:51;98661.56;;;13.13;79.34
68456;BME280;55437;55.046;38.838;2023-07-20T00:47:17;98659.91;;;13.12;79.26
68456;BME280;55437;55.046;38.838;2023-07-20T00:49:44;98666.81;;;13.12;79.49
68456;BME280;55437;55.046;38.838;2023-07-20T00:52:10;98657.34;;;13.12;79.57
68456;BME280;55437;55.046;38.838;2023-07-20T00:54:40;98658.25;;;13.11;79.55
68456;BME280;55437;55.046;38.838;2023-07-20T00:57:07;98663.50;;;13.10;79.40
68456;BME280;55437;55.046;38.838;2023-07-20T00:59:36;98658.44;;;13.08;79.45
68456;BME280;55437;55.046;38.838;2023-07-20T01:02:02;98667.00;;;13.09;79.72
68456;BME280;55437;55.046;38.838;2023-07-20T01:04:28;98655.09;;;13.06;79.45
68456;BME280;55437;55.046;38.838;2023-07-20T01:07:03;98664.22;;;13.12;79.46
68456;BME280;55437;55.046;38.838;2023-07-20T01:14:47;98663.78;;;13.19;79.37
68456;BME280;55437;55.046;38.838;2023-07-20T01:17:13;98661.22;;;13.19;79.39
68456;BME280;55437;55.046;38.838;2023-07-20T01:19:39;98664.63;;;13.20;79.57
68456;BME280;55437;55.046;38.838;2023-07-20T01:33:38;98659.53;;;14.13;77.30
68456;BME280;55437;55.046;38.838;2023-07-20T01:36:07;98669.41;;;14.33;76.81
68456;BME280;55437;55.046;38.838;2023-07-20T01:38:33;98660.88;;;14.46;76.45
68456;BME280;55437;55.046;38.838;2023-07-20T01:40:59;98657.38;;;14.47;76.35
68456;BME280;55437;55.046;38.838;2023-07-20T01:43:25;98663.03;;;14.52;76.07
68456;BME280;55437;55.046;38.838;2023-07-20T01:45:51;98665.53;;;14.66;75.65
68456;BME280;55437;55.046;38.838;2023-07-20T01:48:16;98666.41;;;15.28;74.32
68456;BME280;55437;55.046;38.838;2023-07-20T01:50:42;98661.97;;;15.91;72.80
68456;BME280;55437;55.046;38.838;2023-07-20T01:53:33;98675.00;;;16.48;71.15
68456;BME280;55437;55.046;38.838;2023-07-20T01:56:00;98671.31;;;16.74;70.00
68456;BME280;55437;55.046;38.838;2023-07-20T01:58:26;98673.97;;;16.62;69.90
68456;BME280;55437;55.046;38.838;2023-07-20T02:00:52;98676.94;;;16.68;69.59
68456;BME280;55437;55.046;38.838;2023-07-20T02:03:19;98680.53;;;16.54;69.90
68456;BME280;55437;55.046;38.838;2023-07-20T02:05:47;98684.34;;;16.27;70.28
68456;BME280;55437;55.046;38.838;2023-07-20T02:08:13;98690.72;;;15.99;70.85
68456;BME280;55437;55.046;38.838;2023-07-20T02:10:39;98683.16;;;15.72;71.19
68456;BME280;55437;55.046;38.838;2023-07-20T02:13:05;98684.53;;;15.52;71.79
68456;BME280;55437;55.046;38.838;2023-07-20T02:15:32;98690.22;;;15.94;70.61
68456;BME280;55437;55.046;38.838;2023-07-20T02:17:58;98685.09;;;16.75;68.82
68456;BME280;55437;55.046;38.838;2023-07-20T02:20:24;98692.16;;;17.62;66.57
68456;BME280;55437;55.046;38.838;2023-07-20T02:22:49;98690.91;;;17.88;65.69
68456;BME280;55437;55.046;38.838;2023-07-20T02:25:15;98694.31;;;18.74;63.39
68456;BME280;55437;55.046;38.838;2023-07-20T02:27:41;98691.59;;;19.36;61.46
68456;BME280;55437;55.046;38.838;2023-07-20T02:30:08;98687.75;;;19.80;60.18
68456;BME280;55437;55.046;38.838;2023-07-20T02:32:38;98689.56;;;20.47;58.48
68456;BME280;55437;55.046;38.838;2023-07-20T02:35:22;98686.47;;;21.17;56.82
68456;BME280;55437;55.046;38.838;2023-07-20T02:37:48;98698.00;;;21.79;55.11
68456;BME280;55437;55.046;38.838;2023-07-20T02:40:15;98693.13;;;22.12;53.53
68456;BME280;55437;55.046;38.838;2023-07-20T02:42:41;98699.47;;;22.27;53.26
68456;BME280;55437;55.046;38.838;2023-07-20T02:45:07;98697.53;;;22.73;52.38
68456;BME280;55437;55.046;38.838;2023-07-20T02:47:34;98699.31;;;23.24;51.05
68456;BME280;55437;55.046;38.838;2023-07-20T02:50:01;98696.53;;;23.67;49.94
68456;BME280;55437;55.046;38.838;2023-07-20T02:52:31;98702.09;;;24.23;48.56
68456;BME280;55437;55.046;38.838;2023-07-20T02:54:58;98700.13;;;24.57;47.16
68456;BME280;55437;55.046;38.838;2023-07-20T02:57:24;98708.28;;;24.95;45.91
68456;BME280;55437;55.046;38.838;2023-07-20T02:59:50;98710.00;;;25.27;45.06
68456;BME280;55437;55.046;38.838;2023-07-20T03:02:15;98705.94;;;25.55;44.43
68456;BME280;55437;55.046;38.838;2023-07-20T03:04:42;98710.72;;;25.91;43.92
68456;BME280;55437;55.046;38.838;2023-07-20T03:07:08;98701.09;;;26.06;43.07
68456;BME280;55437;55.046;38.838;2023-07-20T03:09:52;98702.41;;;26.47;42.66
68456;BME280;55437;55.046;38.838;2023-07-20T03:12:18;98696.22;;;26.78;41.55
68456;BME280;55437;55.046;38.838;2023-07-20T03:14:44;98702.22;;;26.86;41.38
68456;BME280;55437;55.046;38.838;2023-07-20T03:17:12;98696.75;;;26.36;41.73
68456;BME280;55437;55.046;38.838;2023-07-20T03:19:37;98705.63;;;25.89;42.29
68456;BME280;55437;55.046;38.838;2023-07-20T03:22:04;98714.41;;;25.34;43.09
68456;BME280;55437;55.046;38.838;2023-07-20T03:24:30;98716.16;;;24.87;43.89
68456;BME280;55437;55.046;38.838;2023-07-20T03:26:56;98717.47;;;24.83;44.31
68456;BME280;55437;55.046;38.838;2023-07-20T03:29:22;98718.66;;;25.43;43.87
68456;BME280;55437;55.046;38.838;2023-07-20T03:31:48;98720.78;;;26.10;42.67
68456;BME280;55437;55.046;38.838;2023-07-20T03:34:14;98725.00;;;26.65;41.45
68456;BME280;55437;55.046;38.838;2023-07-20T03:36:39;98725.72;;;27.25;40.63
68456;BME280;55437;55.046;38.838;2023-07-20T03:39:05;98719.50;;;27.77;39.31
68456;BME280;55437;55.046;38.838;2023-07-20T03:41:31;98730.94;;;28.20;38.33
68456;BME280;55437;55.046;38.838;2023-07-20T03:43:57;98727.94;;;28.51;37.93
68456;BME280;55437;55.046;38.838;2023-07-20T03:46:23;98726.19;;;28.58;37.76
68456;BME280;55437;55.046;38.838;2023-07-20T03:48:49;98726.47;;;28.21;38.28
68456;BME280;55437;55.046;38.838;2023-07-20T03:51:16;98717.28;;;27.81;38.64
68456;BME280;55437;55.046;38.838;2023-07-20T03:53:41;98717.59;;;27.42;39.49
68456;BME280;55437;55.046;38.838;2023-07-20T03:56:08;98725.28;;;26.84;39.83
68456;BME280;55437;55.046;38.838;2023-07-20T03:58:34;98720.44;;;26.13;40.86
68456;BME280;55437;55.046;38.838;2023-07-20T04:01:00;98729.66;;;25.47;42.04
68456;BME280;55437;55.046;38.838;2023-07-20T04:03:26;98731.63;;;24.73;43.10
68456;BME280;55437;55.046;38.838;2023-07-20T04:05:54;98724.19;;;24.12;44.58
68456;BME280;55437;55.046;38.838;2023-07-20T04:08:24;98733.91;;;23.69;45.71
68456;BME280;55437;55.046;38.838;2023-07-20T04:10:50;98727.69;;;23.37;46.28
68456;BME280;55437;55.046;38.838;2023-07-20T04:13:16;98722.28;;;23.30;46.57
68456;BME280;55437;55.046;38.838;2023-07-20T04:15:42;98725.06;;;23.62;46.59
68456;BME280;55437;55.046;38.838;2023-07-20T04:18:08;98730.28;;;24.29;45.87
68456;BME280;55437;55.046;38.838;2023-07-20T04:20:34;98735.06;;;24.74;45.15
68456;BME280;55437;55.046;38.838;2023-07-20T04:23:00;98736.31;;;25.19;44.14
68456;BME280;55437;55.046;38.838;2023-07-20T04:25:26;98739.81;;;25.50;43.28
68456;BME280;55437;55.046;38.838;2023-07-20T04:27:52;98736.25;;;25.35;43.72
68456;BME280;55437;55.046;38.838;2023-07-20T04:30:19;98729.78;;;25.06;44.01
68456;BME280;55437;55.046;38.838;2023-07-20T04:32:46;98734.41;;;24.72;44.51
68456;BME280;55437;55.046;38.838;2023-07-20T04:38:33;98729.38;;;23.88;46.10
68456;BME280;55437;55.046;38.838;2023-07-20T04:41:19;98736.97;;;23.57;46.86
68456;BME280;55437;55.046;38.838;2023-07-20T04:43:48;98736.78;;;23.50;47.32
68456;BME280;55437;55.046;38.838;2023-07-20T04:46:21;98729.03;;;23.75;47.09
68456;BME280;55437;55.046;38.838;2023-07-20T04:48:47;98726.78;;;23.96;46.41
68456;BME280;55437;55.046;38.838;2023-07-20T04:51:14;98735.53;;;24.29;45.95
68456;BME280;55437;55.046;38.838;2023-07-20T04:53:40;98739.59;;;24.88;45.07
68456;BME280;55437;55.046;38.838;2023-07-20T04:56:08;98745.88;;;25.51;44.03
68456;BME280;55437;55.046;38.838;2023-07-20T04:58:33;98725.63;;;26.21;42.33
68456;BME280;55437;55.046;38.838;2023-07-20T05:01:00;98730.47;;;26.78;41.52
68456;BME280;55437;55.046;38.838;2023-07-20T05:03:26;98733.88;;;27.31;40.67
68456;BME280;55437;55.046;38.838;2023-07-20T05:05:52;98737.28;;;27.90;39.66
68456;BME280;55437;55.046;38.838;2023-07-20T05:08:18;98738.22;;;28.40;38.79
68456;BME280;55437;55.046;38.838;2023-07-20T05:10:44;98739.47;;;28.44;38.55
68456;BME280;55437;55.046;38.838;2023-07-20T05:13:10;98738.22;;;28.40;38.46
68456;BME280;55437;55.046;38.838;2023-07-20T05:15:36;98744.78;;;28.72;37.95
68456;BME280;55437;55.046;38.838;2023-07-20T05:18:03;98742.50;;;28.90;37.55
68456;BME280;55437;55.046;38.838;2023-07-20T05:20:29;98741.88;;;28.88;37.46
68456;BME280;55437;55.046;38.838;2023-07-20T05:22:57;98730.00;;;29.05;37.09
68456;BME280;55437;55.046;38.838;2023-07-20T05:25:23;98741.91;;;29.22;37.27
68456;BME280;55437;55.046;38.838;2023-07-20T05:27:49;98749.16;;;29.42;36.42
68456;BME280;55437;55.046;38.838;2023-07-20T05:30:16;98738.22;;;29.51;36.18
68456;BME280;55437;55.046;38.838;2023-07-20T05:32:42;98751.91;;;29.61;36.20
68456;BME280;55437;55.046;38.838;2023-07-20T05:35:08;98751.16;;;29.81;35.66
68456;BME280;55437;55.046;38.838;2023-07-20T05:37:34;98744.69;;;29.90;35.45
68456;BME280;55437;55.046;38.838;2023-07-20T05:40:00;98753.88;;;29.94;35.35
68456;BME280;55437;55.046;38.838;2023-07-20T05:42:25;98745.56;;;30.10;34.72
68456;BME280;55437;55.046;38.838;2023-07-20T05:44:52;98744.81;;;30.29;34.45
68456;BME280;55437;55.046;38.838;2023-07-20T05:47:18;98739.53;;;30.56;34.36
68456;BME280;55437;55.046;38.838;2023-07-20T05:49:44;98744.63;;;30.57;33.90
68456;BME280;55437;55.046;38.838;2023-07-20T05:52:10;98743.22;;;30.55;34.00
68456;BME280;55437;55.046;38.838;2023-07-20T05:54:36;98744.00;;;30.55;33.95
68456;BME280;55437;55.046;38.838;2023-07-20T05:57:02;98747.09;;;30.72;33.49
68456;BME280;55437;55.046;38.838;2023-07-20T05:59:28;98741.97;;;31.03;33.18
68456;BME280;55437;55.046;38.838;2023-07-20T06:01:57;98749.44;;;31.46;32.44
68456;BME280;55437;55.046;38.838;2023-07-20T06:04:23;98742.00;;;31.74;31.88
68456;BME280;55437;55.046;38.838;2023-07-20T06:06:49;98750.19;;;32.04;31.29
68456;BME280;55437;55.046;38.838;2023-07-20T06:09:14;98752.34;;;32.27;30.99
68456;BME280;55437;55.046;38.838;2023-07-20T06:11:40;98756.22;;;32.56;30.72
68456;BME280;55437;55.046;38.838;2023-07-20T06:14:06;98753.25;;;32.71;30.22
68456;BME280;55437;55.046;38.838;2023-07-20T06:16:33;98758.81;;;32.94;29.60
68456;BME280;55437;55.046;38.838;2023-07-20T06:19:00;98758.97;;;33.17;29.64
68456;BME280;55437;55.046;38.838;2023-07-20T06:21:26;98770.53;;;33.30;29.19
68456;BME280;55437;55.046;38.838;2023-07-20T06:23:52;98772.63;;;33.21;29.14
68456;BME280;55437;55.046;38.838;2023-07-20T06:26:19;98770.38;;;33.24;29.17
68456;BME280;55437;55.046;38.838;2023-07-20T06:28:45;98765.06;;;33.24;29.06
68456;BME280;55437;55.046;38.838;2023-07-20T06:31:11;98778.69;;;33.10;29.21
68456;BME280;55437;55.046;38.838;2023-07-20T06:33:37;98774.25;;;33.22;28.75
68456;BME280;55437;55.046;38.838;2023-07-20T06:36:04;98774.22;;;33.47;28.90
68456;BME280;55437;55.046;38.838;2023-07-20T06:38:30;98776.16;;;33.58;28.76
68456;BME280;55437;55.046;38.838;2023-07-20T06:40:56;98770.97;;;33.63;28.80
68456;BME280;55437;55.046;38.838;2023-07-20T06:43:21;98773.69;;;33.75;28.17
68456;BME280;55437;55.046;38.838;2023-07-20T06:45:51;98771.47;;;33.72;28.38
68456;BME280;55437;55.046;38.838;2023-07-20T06:48:21;98779.13;;;33.68;28.44
68456;BME280;55437;55.046;38.838;2023-07-20T06:50:47;98773.41;;;33.65;28.20
68456;BME280;55437;55.046;38.838;2023-07-20T06:53:13;98769.88;;;33.52;28.18
68456;BME280;55437;55.046;38.838;2023-07-20T06:55:41;98769.50;;;33.67;28.05
68456;BME280;55437;55.046;38.838;2023-07-20T06:58:07;98772.06;;;33.74;28.33
68456;BME280;55437;55.046;38.838;2023-07-20T07:00:33;98770.75;;;33.83;28.74
68456;BME280;55437;55.046;38.838;2023-07-20T07:03:18;98776.97;;;33.77;28.70
68456;BME280;55437;55.046;38.838;2023-07-20T07:05:45;98777.03;;;33.70;27.97
68456;BME280;55437;55.046;38.838;2023-07-20T07:08:11;98770.66;;;33.71;28.12
68456;BME280;55437;55.046;38.838;2023-07-20T07:10:37;98772.44;;;33.59;28.41
68456;BME280;55437;55.046;38.838;2023-07-20T07:13:03;98769.13;;;33.63;28.40
68456;BME280;55437;55.046;38.838;2023-07-20T07:15:29;98765.47;;;33.21;28.13
68456;BME280;55437;55.046;38.838;2023-07-20T07:17:55;98771.28;;;33.12;28.38
68456;BME280;55437;55.046;38.838;2023-07-20T07:20:22;98769.53;;;33.06;28.33
68456;BME280;55437;55.046;38.838;2023-07-20T07:22:49;98775.88;;;33.05;27.97
68456;BME280;55437;55.046;38.838;2023-07-20T07:25:15;98768.19;;;33.15;28.14
68456;BME280;55437;55.046;38.838;2023-07-20T07:27:41;98780.81;;;33.01;28.54
68456;BME280;55437;55.046;38.838;2023-07-20T07:30:07;98766.09;;;32.99;28.34
68456;BME280;55437;55.046;38.838;2023-07-20T07:32:34;98770.13;;;33.08;28.55
68456;BME280;55437;55.046;38.838;2023-07-20T07:35:00;98769.66;;;32.92;28.88
68456;BME280;55437;55.046;38.838;2023-07-20T07:37:26;98773.59;;;33.08;28.46
68456;BME280;55437;55.046;38.838;2023-07-20T07:39:52;98773.56;;;33.33;28.74
68456;BME280;55437;55.046;38.838;2023-07-20T07:42:18;98780.97;;;33.31;27.96
68456;BME280;55437;55.046;38.838;2023-07-20T07:44:45;98786.72;;;32.15;28.83
68456;BME280;55437;55.046;38.838;2023-07-20T07:47:11;98783.34;;;31.95;29.05
68456;BME280;55437;55.046;38.838;2023-07-20T07:49:38;98773.28;;;31.52;29.66
68456;BME280;55437;55.046;38.838;2023-07-20T07:52:04;98771.56;;;31.78;29.68
68456;BME280;55437;55.046;38.838;2023-07-20T07:54:30;98777.22;;;31.95;29.60
68456;BME280;55437;55.046;38.838;2023-07-20T07:56:56;98782.50;;;31.43;29.97
68456;BME280;55437;55.046;38.838;2023-07-20T07:59:40;98772.13;;;31.35;30.54
68456;BME280;55437;55.046;38.838;2023-07-20T08:02:06;98780.72;;;31.89;29.92
68456;BME280;55437;55.046;38.838;2023-07-20T08:04:32;98771.00;;;32.20;29.22
68456;BME280;55437;55.046;38.838;2023-07-20T08:06:59;98777.19;;;32.39;29.10
68456;BME280;55437;55.046;38.838;2023-07-20T08:09:26;98781.44;;;32.47;28.33
68456;BME280;55437;55.046;38.838;2023-07-20T08:11:52;98773.41;;;32.53;28.01
68456;BME280;55437;55.046;38.838;2023-07-20T08:14:17;98773.16;;;32.30;28.88
68456;BME280;55437;55.046;38.838;2023-07-20T08:16:44;98778.13;;;32.13;29.44
68456;BME280;55437;55.046;38.838;2023-07-20T08:19:11;98776.78;;;32.42;29.34
68456;BME280;55437;55.046;38.838;2023-07-20T08:21:37;98778.75;;;31.71;29.59
68456;BME280;55437;55.046;38.838;2023-07-20T08:24:03;98778.41;;;31.47;29.98
68456;BME280;55437;55.046;38.838;2023-07-20T08:26:29;98780.09;;;30.96;30.19
68456;BME280;55437;55.046;38.838;2023-07-20T08:28:56;98778.69;;;30.87;30.46
68456;BME280;55437;55.046;38.838;2023-07-20T08:31:21;98790.13;;;31.13;30.18
68456;BME280;55437;55.046;38.838;2023-07-20T08:33:48;98782.50;;;31.43;30.20
68456;BME280;55437;55.046;38.838;2023-07-20T08:36:14;98783.75;;;31.34;29.84
68456;BME280;55437;55.046;38.838;2023-07-20T08:38:42;98784.91;;;31.65;29.26
68456;BME280;55437;55.046;38.838;2023-07-20T08:41:08;98782.50;;;31.43;29.98
68456;BME280;55437;55.046;38.838;2023-07-20T08:43:37;98788.09;;;31.16;30.64
68456;BME280;55437;55.046;38.838;2023-07-20T08:46:07;98790.28;;;31.05;30.75
68456;BME280;55437;55.046;38.838;2023-07-20T08:48:36;98777.19;;;30.25;31.59
68456;BME280;55437;55.046;38.838;2023-07-20T08:51:05;98790.75;;;30.02;32.02
68456;BME280;55437;55.046;38.838;2023-07-20T08:53:32;98780.72;;;29.91;31.94
68456;BME280;55437;55.046;38.838;2023-07-20T08:55:59;98786.72;;;29.30;32.20
68456;BME280;55437;55.046;38.838;2023-07-20T08:58:26;98783.06;;;29.03;32.56
68456;BME280;55437;55.046;38.838;2023-07-20T09:00:53;98792.28;;;28.86;32.95
68456;BME280;55437;55.046;38.838;2023-07-20T09:03:19;98784.63;;;28.70;33.26
68456;BME280;55437;55.046;38.838;2023-07-20T09:05:45;98782.28;;;28.39;34.26
68456;BME280;55437;55.046;38.838;2023-07-20T09:08:11;98785.25;;;27.79;34.76
68456;BME280;55437;55.046;38.838;2023-07-20T09:10:37;98780.16;;;27.48;35.22
68456;BME280;55437;55.046;38.838;2023-07-20T09:13:03;98788.25;;;27.17;35.20
68456;BME280;55437;55.046;38.838;2023-07-20T09:15:29;98789.88;;;27.03;35.56
68456;BME280;55437;55.046;38.838;2023-07-20T09:17:56;98788.09;;;26.96;36.26
68456;BME280;55437;55.046;38.838;2023-07-20T09:20:22;98794.03;;;26.75;36.76
68456;BME280;55437;55.046;38.838;2023-07-20T09:22:48;98797.31;;;26.77;36.34
68456;BME280;55437;55.046;38.838;2023-07-20T09:25:17;98792.72;;;26.71;36.51
68456;BME280;55437;55.046;38.838;2023-07-20T09:27:48;98782.75;;;26.66;36.63
68456;BME280;55437;55.046;38.838;2023-07-20T09:30:15;98789.66;;;26.67;35.99
68456;BME280;55437;55.046;38.838;2023-07-20T09:32:49;98788.53;;;26.62;36.53
68456;BME280;55437;55.046;38.838;2023-07-20T09:35:18;98790.81;;;26.65;36.15
68456;BME280;55437;55.046;38.838;2023-07-20T09:37:54;98792.09;;;26.69;35.78
68456;BME280;55437;55.046;38.838;2023-07-20T09:40:21;98779.50;;;26.79;35.69
68456;BME280;55437;55.046;38.838;2023-07-20T09:42:47;98795.34;;;26.56;36.51
68456;BME280;55437;55.046;38.838;2023-07-20T09:45:14;98797.31;;;26.23;36.86
68456;BME280;55437;55.046;38.838;2023-07-20T09:47:40;98790.72;;;26.27;36.77
68456;BME280;55437;55.046;38.838;2023-07-20T09:50:08;98787.44;;;26.25;37.35
68456;BME280;55437;55.046;38.838;2023-07-20T09:52:38;98787.94;;;25.98;37.60
68456;BME280;55437;55.046;38.838;2023-07-20T09:55:09;98785.03;;;25.84;37.45
68456;BME280;55437;55.046;38.838;2023-07-20T09:57:36;98778.94;;;25.92;37.78
68456;BME280;55437;55.046;38.838;2023-07-20T10:00:07;98780.00;;;26.06;37.78
68456;BME280;55437;55.046;38.838;2023-07-20T10:02:42;98785.69;;;26.17;37.87
68456;BME280;55437;55.046;38.838;2023-07-20T10:05:14;98783.84;;;25.95;38.28
68456;BME280;55437;55.046;38.838;2023-07-20T10:07:47;98788.09;;;25.57;38.32
68456;BME280;55437;55.046;38.838;2023-07-20T10:10:19;98788.81;;;25.35;38.60
68456;BME280;55437;55.046;38.838;2023-07-20T10:12:49;98782.31;;;25.06;39.69
68456;BME280;55437;55.046;38.838;2023-07-20T10:15:24;98789.84;;;25.18;39.34
68456;BME280;55437;55.046;38.838;2023-07-20T10:21:07;98787.59;;;25.70;38.25
68456;BME280;55437;55.046;38.838;2023-07-20T10:23:34;98780.78;;;25.83;38.17
68456;BME280;55437;55.046;38.838;2023-07-20T10:26:01;98774.06;;;25.81;38.68
68456;BME280;55437;55.046;38.838;2023-07-20T10:28:46;98781.59;;;25.84;39.04
68456;BME280;55437;55.046;38.838;2023-07-20T10:31:13;98785.19;;;25.91;38.75
68456;BME280;55437;55.046;38.838;2023-07-20T10:33:40;98778.53;;;26.03;39.32
68456;BME280;55437;55.046;38.838;2023-07-20T10:36:06;98779.13;;;26.13;38.57
68456;BME280;55437;55.046;38.838;2023-07-20T10:38:56;98779.94;;;26.14;38.97
68456;BME280;55437;55.046;38.838;2023-07-20T10:41:41;98782.00;;;26.04;39.30
68456;BME280;55437;55.046;38.838;2023-07-20T10:44:09;98778.88;;;26.00;39.43
68456;BME280;55437;55.046;38.838;2023-07-20T10:47:01;98787.00;;;25.91;39.38
68456;BME280;55437;55.046;38.838;2023-07-20T10:49:28;98796.53;;;25.92;39.59
68456;BME280;55437;55.046;38.838;2023-07-20T10:51:59;98789.28;;;25.94;39.45
68456;BME280;55437;55.046;38.838;2023-07-20T10:56:51;98788.72;;;26.06;38.62
68456;BME280;55437;55.046;38.838;2023-07-20T11:01:56;98788.19;;;25.80;38.53
68456;BME280;55437;55.046;38.838;2023-07-20T11:04:40;98780.75;;;25.44;38.80
68456;BME280;55437;55.046;38.838;2023-07-20T11:07:07;98793.09;;;25.28;39.54
68456;BME280;55437;55.046;38.838;2023-07-20T11:09:34;98783.75;;;25.17;40.45
68456;BME280;55437;55.046;38.838;2023-07-20T11:12:17;98785.06;;;25.21;40.31
68456;BME280;55437;55.046;38.838;2023-07-20T11:14:57;98778.66;;;25.16;40.48
68456;BME280;55437;55.046;38.838;2023-07-20T11:17:31;98794.28;;;25.01;40.69
68456;BME280;55437;55.046;38.838;2023-07-20T11:19:58;98794.47;;;24.99;41.57
68456;BME280;55437;55.046;38.838;2023-07-20T11:22:24;98795.63;;;24.97;41.84
68456;BME280;55437;55.046;38.838;2023-07-20T11:24:50;98803.81;;;24.94;41.89
68456;BME280;55437;55.046;38.838;2023-07-20T11:27:16;98799.84;;;24.82;41.51
68456;BME280;55437;55.046;38.838;2023-07-20T11:29:45;98795.78;;;24.87;41.43
68456;BME280;55437;55.046;38.838;2023-07-20T11:32:10;98797.06;;;24.91;41.72
68456;BME280;55437;55.046;38.838;2023-07-20T11:34:36;98797.41;;;25.04;41.60
68456;BME280;55437;55.046;38.838;2023-07-20T11:37:03;98791.84;;;24.99;41.55
68456;BME280;55437;55.046;38.838;2023-07-20T11:39:32;98796.25;;;24.83;42.46
68456;BME280;55437;55.046;38.838;2023-07-20T11:41:58;98802.63;;;24.56;42.96
68456;BME280;55437;55.046;38.838;2023-07-20T11:44:26;98805.53;;;24.28;43.19
68456;BME280;55437;55.046;38.838;2023-07-20T11:47:04;98814.13;;;24.04;44.10
68456;BME280;55437;55.046;38.838;2023-07-20T11:49:49;98821.03;;;23.63;46.23
68456;BME280;55437;55.046;38.838;2023-07-20T11:52:23;98825.91;;;23.58;47.96
68456;BME280;55437;55.046;38.838;2023-07-20T11:54:49;98821.88;;;23.46;48.48
68456;BME280;55437;55.046;38.838;2023-07-20T11:57:17;98831.47;;;23.55;49.09
68456;BME280;55437;55.046;38.838;2023-07-20T11:59:56;98831.69;;;23.62;49.83
68456;BME280;55437;55.046;38.838;2023-07-20T12:02:46;98822.16;;;23.61;50.18
68456;BME280;55437;55.046;38.838;2023-07-20T12:05:13;98822.69;;;23.64;49.74
68456;BME280;55437;55.046;38.838;2023-07-20T12:07:39;98819.91;;;23.66;49.17
68456;BME280;55437;55.046;38.838;2023-07-20T12:10:10;98817.84;;;23.78;48.14
68456;BME280;55437;55.046;38.838;2023-07-20T12:12:44;98815.41;;;23.92;48.74
68456;BME280;55437;55.046;38.838;2023-07-20T12:15:19;98815.25;;;23.94;48.31
68456;BME280;55437;55.046;38.838;2023-07-20T12:17:46;98819.84;;;23.92;48.10
68456;BME280;55437;55.046;38.838;2023-07-20T12:20:12;98804.44;;;23.89;46.63
68456;BME280;55437;55.046;38.838;2023-07-20T12:23:00;98815.41;;;23.92;45.72
68456;BME280;55437;55.046;38.838;2023-07-20T12:25:44;98808.31;;;23.77;46.21
68456;BME280;55437;55.046;38.838;2023-07-20T12:28:12;98812.00;;;23.58;46.24
68456;BME280;55437;55.046;38.838;2023-07-20T12:30:40;98820.34;;;23.35;46.93
68456;BME280;55437;55.046;38.838;2023-07-20T12:33:07;98818.16;;;23.23;46.95
68456;BME280;55437;55.046;38.838;2023-07-20T12:35:33;98823.53;;;23.21;47.03
68456;BME280;55437;55.046;38.838;2023-07-20T12:38:00;98829.59;;;23.22;47.85
68456;BME280;55437;55.046;38.838;2023-07-20T12:40:26;98828.03;;;23.29;48.74
68456;BME280;55437;55.046;38.838;2023-07-20T12:42:52;98828.44;;;23.42;48.11
68456;BME280;55437;55.046;38.838;2023-07-20T12:45:18;98818.91;;;23.67;47.70
68456;BME280;55437;55.046;38.838;2023-07-20T12:47:45;98819.66;;;23.85;47.30
68456;BME280;55437;55.046;38.838;2023-07-20T12:50:11;98816.59;;;24.06;46.15
68456;BME280;55437;55.046;38.838;2023-07-20T12:52:38;98815.34;;;24.18;44.99
68456;BME280;55437;55.046;38.838;2023-07-20T12:55:06;98812.28;;;24.23;44.81
68456;BME280;55437;55.046;38.838;2023-07-20T12:57:34;98813.75;;;24.25;44.82
68456;BME280;55437;55.046;38.838;2023-07-20T13:00:05;98812.44;;;24.29;45.24
68456;BME280;55437;55.046;38.838;2023-07-20T13:02:34;98812.94;;;24.41;45.11
68456;BME280;55437;55.046;38.838;2023-07-20T13:05:02;98805.25;;;24.56;45.34
68456;BME280;55437;55.046;38.838;2023-07-20T13:07:47;98809.22;;;24.68;44.92
68456;BME280;55437;55.046;38.838;2023-07-20T13:10:13;98810.19;;;24.67;44.29
68456;BME280;55437;55.046;38.838;2023-07-20T13:12:38;98806.25;;;24.55;44.23
68456;BME280;55437;55.046;38.838;2023-07-20T13:15:06;98803.94;;;24.44;44.48
68456;BME280;55437;55.046;38.838;2023-07-20T13:17:34;98812.44;;;24.29;45.52
68456;BME280;55437;55.046;38.838;2023-07-20T13:20:02;98804.69;;;24.12;45.41
68456;BME280;55437;55.046;38.838;2023-07-20T13:22:31;98798.75;;;24.01;45.80